Time;durP1;ratioP1;P1;durP2;ratioP2;P2;SDS_P1;SDS_P2;PMS_P1;PMS_P2;Temp;Humidity;BMP_temperature;BMP_pressure;BME280_temperature;BME280_humidity;BME280_pressure;Samples;Min_cycle;Max_cycle;Signal;HPM_P1;HPM_P2
2022/07/28 00:00:07;;;;;;;2.88;0.90;;;;;;;14.33;62.26;101891.56;5056724;28;20065;-70
2022/07/28 00:02:34;;;;;;;4.35;0.85;;;;;;;14.29;62.51;101897.88;5052577;28;20048;-70
2022/07/28 00:05:04;;;;;;;3.75;1.10;;;;;;;14.27;62.54;101895.25;5053127;28;20484;-70
2022/07/28 00:07:31;;;;;;;4.78;1.00;;;;;;;14.27;62.48;101895.25;5051200;28;20050;-69
2022/07/28 00:09:58;;;;;;;3.38;0.90;;;;;;;14.22;62.81;101891.88;5052174;28;20475;-70
2022/07/28 00:12:27;;;;;;;4.95;1.30;;;;;;;14.24;62.84;101899.78;5052293;28;20905;-70
2022/07/28 00:14:54;;;;;;;3.15;1.05;;;;;;;14.29;62.60;101885.47;5057298;28;20037;-70
2022/07/28 00:17:21;;;;;;;4.40;0.90;;;;;;;14.25;62.48;101882.94;5073772;28;20045;-70
2022/07/28 00:19:49;;;;;;;3.05;0.90;;;;;;;14.22;62.59;101878.59;5056146;28;20108;-70
2022/07/28 00:22:17;;;;;;;2.13;0.90;;;;;;;14.19;62.80;101893.75;5054075;28;20504;-70
2022/07/28 00:24:44;;;;;;;2.80;1.10;;;;;;;14.21;62.51;101878.66;5054649;28;20041;-70
2022/07/28 00:27:16;;;;;;;5.10;1.05;;;;;;;14.16;62.66;101884.09;5055212;28;20042;-70
2022/07/28 00:29:45;;;;;;;3.33;0.80;;;;;;;14.14;62.64;101878.81;5055479;28;20534;-70
2022/07/28 00:32:19;;;;;;;2.40;0.90;;;;;;;14.12;62.79;101888.63;5071759;28;20043;-70
2022/07/28 00:34:47;;;;;;;5.80;0.82;;;;;;;14.12;62.85;101891.28;5067351;28;20160;-70
2022/07/28 00:37:19;;;;;;;5.63;1.00;;;;;;;14.12;62.62;101887.72;5074962;28;20498;-70
2022/07/28 00:39:48;;;;;;;3.28;0.98;;;;;;;14.09;62.75;101891.34;5054047;28;20045;-70
2022/07/28 00:42:20;;;;;;;2.05;1.10;;;;;;;14.13;62.31;101889.47;5054888;28;20116;-70
2022/07/28 00:44:48;;;;;;;2.42;0.70;;;;;;;14.09;62.41;101885.19;5067281;28;20091;-71
2022/07/28 00:47:15;;;;;;;4.40;1.08;;;;;;;14.08;62.31;101873.69;5073525;28;20116;-70
2022/07/28 00:49:44;;;;;;;4.85;1.00;;;;;;;14.05;62.80;101875.56;5073721;28;20045;-69
2022/07/28 00:52:12;;;;;;;3.00;1.08;;;;;;;14.03;62.97;101866.78;5073146;28;20086;-70
2022/07/28 00:54:39;;;;;;;3.33;1.10;;;;;;;14.03;62.34;101858.84;5054472;28;20073;-70
2022/07/28 00:57:07;;;;;;;3.47;1.00;;;;;;;13.97;62.57;101867.84;5054685;28;20077;-70
2022/07/28 00:59:35;;;;;;;2.35;0.70;;;;;;;13.95;62.64;101864.34;5070095;28;20611;-69
2022/07/28 01:02:04;;;;;;;2.28;0.80;;;;;;;13.94;62.33;101859.94;5072122;28;20530;-69
2022/07/28 01:04:31;;;;;;;3.08;0.90;;;;;;;13.90;62.16;101855.66;5072347;28;20551;-69
2022/07/28 01:07:33;;;;;;;1.95;0.70;;;;;;;13.82;62.43;101869.13;5072757;28;20072;-69
2022/07/28 01:10:23;;;;;;;3.13;0.80;;;;;;;13.74;62.60;101864.03;5054549;28;20136;-69
2022/07/28 01:13:02;;;;;;;2.88;0.90;;;;;;;13.69;62.71;101859.75;5056714;28;20045;-69
2022/07/28 01:15:43;;;;;;;2.83;0.90;;;;;;;13.62;62.58;101862.59;5064299;28;20592;-69
2022/07/28 01:18:23;;;;;;;4.00;1.05;;;;;;;13.59;63.16;101867.09;5054308;28;20104;-69
2022/07/28 01:21:02;;;;;;;2.80;1.05;;;;;;;13.53;63.25;101875.22;5055200;28;20104;-69
2022/07/28 01:23:32;;;;;;;4.15;1.20;;;;;;;13.44;63.13;101868.38;5053464;28;20096;-70
2022/07/28 01:26:37;;;;;;;4.78;0.85;;;;;;;13.42;63.50;101867.53;5068665;28;20041;-69
2022/07/28 01:29:36;;;;;;;5.47;1.02;;;;;;;13.36;63.28;101866.78;5061154;28;20500;-70
2022/07/28 01:32:26;;;;;;;4.78;0.90;;;;;;;13.30;63.70;101866.06;5004388;28;20053;-70
2022/07/28 01:35:02;;;;;;;3.35;1.00;;;;;;;13.26;63.57;101862.63;5055294;28;20104;-70
2022/07/28 01:37:32;;;;;;;4.93;0.90;;;;;;;13.22;64.00;101853.00;5059797;28;20469;-69
2022/07/28 01:40:06;;;;;;;3.03;0.75;;;;;;;13.20;64.00;101855.72;5051593;28;20045;-69
2022/07/28 01:42:43;;;;;;;4.78;0.95;;;;;;;13.14;64.34;101847.03;5055115;28;20075;-69
2022/07/28 01:45:15;;;;;;;3.33;1.10;;;;;;;13.09;64.27;101844.50;5055332;28;20042;-69
2022/07/28 01:47:45;;;;;;;1.83;0.80;;;;;;;13.02;64.46;101850.88;5051919;28;20500;-69
2022/07/28 01:50:17;;;;;;;4.18;1.02;;;;;;;13.01;64.67;101847.34;5053490;28;20544;-69
2022/07/28 01:52:48;;;;;;;3.70;1.10;;;;;;;12.99;64.61;101845.66;5070127;28;20041;-69
2022/07/28 01:55:19;;;;;;;5.38;1.17;;;;;;;12.95;64.80;101849.25;5064086;28;20409;-69
2022/07/28 01:57:50;;;;;;;2.65;1.23;;;;;;;12.93;64.84;101851.94;5053307;28;20120;-69
2022/07/28 02:00:19;;;;;;;2.97;1.00;;;;;;;12.90;65.25;101844.06;5060516;28;20049;-68
2022/07/28 02:02:51;;;;;;;1.92;1.00;;;;;;;12.92;65.26;101841.41;5068128;28;20075;-69
2022/07/28 02:05:22;;;;;;;2.78;0.88;;;;;;;12.94;65.09;101837.81;5072183;28;20041;-70
2022/07/28 02:07:52;;;;;;;2.47;0.93;;;;;;;12.92;64.70;101836.97;5063906;28;20041;-70
2022/07/28 02:10:21;;;;;;;3.30;1.00;;;;;;;12.89;64.87;101834.41;5053319;28;20038;-70
2022/07/28 02:12:51;;;;;;;4.10;1.00;;;;;;;12.81;65.08;101831.06;5053717;28;20065;-70
2022/07/28 02:15:22;;;;;;;3.17;1.00;;;;;;;12.77;65.29;101840.00;5059753;28;20045;-72
2022/07/28 02:17:52;;;;;;;5.00;1.00;;;;;;;12.69;65.36;101834.88;5053173;28;20073;-70
2022/07/28 02:20:21;;;;;;;3.65;0.90;;;;;;;12.67;65.59;101837.53;5061043;28;20640;-70
2022/07/28 02:22:52;;;;;;;2.17;0.90;;;;;;;12.64;65.76;101834.09;5073654;28;20496;-70
2022/07/28 02:25:20;;;;;;;4.45;1.08;;;;;;;12.61;65.92;101831.56;5064892;28;20050;-70
2022/07/28 02:28:06;;;;;;;3.58;1.10;;;;;;;12.58;66.15;101836.00;5052999;28;20042;-70
2022/07/28 02:30:47;;;;;;;3.70;1.00;;;;;;;12.57;66.04;101834.25;5058351;28;20495;-69
2022/07/28 02:33:21;;;;;;;5.63;1.23;;;;;;;12.54;66.23;101834.31;5069720;28;20112;-69
2022/07/28 02:36:18;;;;;;;7.15;1.23;;;;;;;12.54;66.13;101834.31;5063040;28;20533;-69
2022/07/28 02:38:50;;;;;;;4.18;1.05;;;;;;;12.53;66.55;101834.38;5073269;28;20077;-69
2022/07/28 02:41:27;;;;;;;3.97;1.35;;;;;;;12.54;66.38;101818.44;5064126;28;20099;-69
2022/07/28 02:43:59;;;;;;;2.88;1.00;;;;;;;12.54;66.91;101821.09;5059652;28;20049;-69
2022/07/28 02:46:37;;;;;;;2.55;1.15;;;;;;;12.56;66.57;101815.78;5057835;28;21002;-71
2022/07/28 02:49:11;;;;;;;3.85;1.30;;;;;;;12.60;66.36;101814.78;5069860;28;20041;-69
2022/07/28 02:51:43;;;;;;;4.70;1.15;;;;;;;12.61;66.35;101819.19;5066101;28;20084;-70
2022/07/28 02:54:12;;;;;;;5.13;1.27;;;;;;;12.60;65.86;101817.44;5051823;28;20050;-69
2022/07/28 02:56:41;;;;;;;4.60;1.30;;;;;;;12.56;66.53;101816.66;5052506;28;20049;-70
2022/07/28 02:59:22;;;;;;;7.47;1.50;;;;;;;12.51;66.79;101810.59;5054989;28;20056;-70
2022/07/28 03:01:50;;;;;;;6.40;1.20;;;;;;;12.49;66.87;101819.47;5061701;28;20041;-69
2022/07/28 03:07:05;;;;;;;2.60;1.15;;;;;;;12.39;67.30;101814.38;5061566;28;20495;-69
2022/07/28 03:09:46;;;;;;;3.88;1.02;;;;;;;12.38;67.37;101823.22;5073347;28;20041;-69
2022/07/28 03:12:14;;;;;;;2.92;0.82;;;;;;;12.39;67.60;101814.38;5073021;28;20045;-68
2022/07/28 03:14:41;;;;;;;4.72;1.40;;;;;;;12.40;67.49;101815.28;5055654;28;20072;-69
2022/07/28 03:17:09;;;;;;;6.32;1.42;;;;;;;12.36;67.51;101816.22;5072167;28;20049;-69
2022/07/28 03:19:37;;;;;;;5.68;1.90;;;;;;;12.34;67.71;101825.97;5060815;28;20084;-68
2022/07/28 03:22:06;;;;;;;3.95;1.30;;;;;;;12.30;67.52;101824.31;5059095;28;20048;-69
2022/07/28 03:24:42;;;;;;;8.50;1.35;;;;;;;12.29;67.87;101831.34;5072153;28;20045;-69
2022/07/28 03:27:37;;;;;;;5.10;1.13;;;;;;;12.29;67.88;101825.22;5072170;28;20033;-71
2022/07/28 03:30:13;;;;;;;3.25;1.10;;;;;;;12.27;67.93;101833.16;5040892;28;20042;-69
2022/07/28 03:32:47;;;;;;;3.45;1.20;;;;;;;12.23;68.49;101839.44;5058017;28;20116;-70
2022/07/28 03:35:14;;;;;;;1.40;1.00;;;;;;;12.24;68.23;101828.81;5066057;28;20055;-70
2022/07/28 03:37:53;;;;;;;3.47;1.40;;;;;;;12.22;68.29;101842.97;5064362;28;20103;-73
2022/07/28 03:40:25;;;;;;;3.28;1.00;;;;;;;12.20;68.45;101837.72;5072538;28;20040;-70
2022/07/28 03:42:54;;;;;;;2.33;1.17;;;;;;;12.21;68.47;101838.59;5067799;28;20769;-70
2022/07/28 03:45:23;;;;;;;3.15;1.13;;;;;;;12.19;68.70;101843.03;5044402;28;20046;-71
2022/07/28 03:47:53;;;;;;;4.13;1.30;;;;;;;12.13;68.58;101837.88;5047099;28;20045;-69
2022/07/28 03:50:27;;;;;;;4.03;1.30;;;;;;;12.11;68.67;101837.88;5051645;28;20048;-69
2022/07/28 03:52:58;;;;;;;4.15;1.23;;;;;;;12.06;69.06;101842.41;5053537;28;20045;-69
2022/07/28 03:55:25;;;;;;;3.53;1.17;;;;;;;12.02;69.22;101849.53;5052108;28;20037;-71
2022/07/28 03:57:52;;;;;;;3.38;1.25;;;;;;;12.03;69.25;101853.03;5056038;28;20054;-70
2022/07/28 04:00:21;;;;;;;3.63;1.30;;;;;;;11.98;69.67;101855.78;5051511;28;20041;-70
2022/07/28 04:02:48;;;;;;;4.60;1.30;;;;;;;11.93;69.72;101860.28;5058720;28;20044;-72
2022/07/28 04:05:17;;;;;;;4.25;1.58;;;;;;;11.91;69.60;101843.56;5058320;28;20063;-70
2022/07/28 04:07:45;;;;;;;6.28;1.30;;;;;;;11.89;69.99;101848.00;5057994;28;20139;-70
2022/07/28 04:10:16;;;;;;;4.53;1.13;;;;;;;11.84;69.93;101845.44;5051975;28;20041;-72
2022/07/28 04:12:56;;;;;;;5.22;1.38;;;;;;;11.87;70.34;101848.03;5062829;28;20550;-70
2022/07/28 04:15:26;;;;;;;2.78;1.50;;;;;;;11.83;70.34;101838.44;5052797;28;20037;-70
2022/07/28 04:17:55;;;;;;;5.80;1.55;;;;;;;11.89;70.22;101845.34;5051694;28;20056;-69
2022/07/28 04:20:25;;;;;;;3.97;1.42;;;;;;;11.90;70.41;101842.72;5051056;28;20469;-70
2022/07/28 04:22:53;;;;;;;5.35;1.45;;;;;;;11.92;70.47;101840.03;5064780;28;20025;-70
2022/07/28 04:25:24;;;;;;;11.70;2.00;;;;;;;11.98;70.21;101837.28;5071959;28;20048;-70
2022/07/28 04:27:53;;;;;;;3.13;1.10;;;;;;;11.99;70.41;101840.81;5071274;28;20041;-70
2022/07/28 04:30:26;;;;;;;5.57;1.42;;;;;;;11.96;70.08;101825.84;5064648;28;20048;-69
2022/07/28 04:32:55;;;;;;;4.22;1.40;;;;;;;11.97;70.35;101827.56;5056499;28;20052;-70
2022/07/28 04:35:23;;;;;;;8.38;2.20;;;;;;;12.00;70.37;101824.91;5050625;28;20033;-70
2022/07/28 04:37:53;;;;;;;5.93;1.65;;;;;;;11.99;70.49;101824.97;5055037;28;20124;-69
2022/07/28 04:40:21;;;;;;;4.55;1.55;;;;;;;12.02;70.29;101825.75;5062494;28;20048;-69
2022/07/28 04:42:48;;;;;;;5.05;1.65;;;;;;;12.09;70.26;101827.38;5069891;28;20040;-71
2022/07/28 04:45:16;;;;;;;4.05;1.35;;;;;;;12.16;70.08;101833.41;5071160;28;20111;-70
2022/07/28 04:47:44;;;;;;;2.53;1.30;;;;;;;12.19;70.15;101828.06;5065471;28;20072;-71
2022/07/28 04:50:14;;;;;;;8.10;1.80;;;;;;;12.29;70.07;101834.00;5058268;28;20128;-70
2022/07/28 04:52:48;;;;;;;2.35;1.00;;;;;;;12.37;69.76;101828.56;5054444;28;20103;-71
2022/07/28 04:55:16;;;;;;;3.63;1.45;;;;;;;12.60;69.48;101835.97;5054559;28;20064;-70
2022/07/28 04:57:44;;;;;;;5.68;1.63;;;;;;;13.10;68.00;101824.19;5055648;28;20042;-71
2022/07/28 05:00:13;;;;;;;6.05;1.30;;;;;;;13.80;65.43;101823.25;5054379;28;20041;-70
2022/07/28 05:02:43;;;;;;;7.45;1.30;;;;;;;13.61;65.43;101825.56;5061324;28;20496;-70
2022/07/28 05:05:12;;;;;;;3.90;1.48;;;;;;;13.39;65.94;101820.84;5054032;28;20041;-71
2022/07/28 05:07:40;;;;;;;7.43;1.40;;;;;;;13.28;66.16;101813.13;5054557;28;20065;-71
2022/07/28 05:10:10;;;;;;;7.50;1.55;;;;;;;13.25;66.55;101822.94;5054153;28;20042;-71
2022/07/28 05:12:38;;;;;;;3.63;1.10;;;;;;;13.24;66.72;101830.00;5070981;28;20045;-73
2022/07/28 05:15:07;;;;;;;5.80;1.13;;;;;;;13.30;66.51;101823.69;5063091;28;20044;-71
2022/07/28 05:17:35;;;;;;;4.05;1.27;;;;;;;13.34;66.27;101825.34;5071470;28;20045;-71
2022/07/28 05:20:05;;;;;;;5.03;1.00;;;;;;;13.39;66.31;101819.91;5062541;28;20053;-71
2022/07/28 05:22:42;;;;;;;5.55;1.17;;;;;;;13.46;66.53;101821.53;5052509;28;20049;-70
2022/07/28 05:25:22;;;;;;;4.07;1.27;;;;;;;13.60;65.39;101821.16;5049593;28;20103;-70
2022/07/28 05:27:53;;;;;;;3.38;1.10;;;;;;;13.70;65.49;101821.75;5055507;28;20045;-70
2022/07/28 05:30:21;;;;;;;3.42;1.15;;;;;;;13.77;65.12;101812.75;5069192;28;20054;-69
2022/07/28 05:32:49;;;;;;;4.15;1.10;;;;;;;13.87;64.97;101818.66;5053206;28;20053;-69
2022/07/28 05:35:18;;;;;;;7.82;1.50;;;;;;;14.10;64.34;101812.66;5032568;28;20065;-69
2022/07/28 05:37:46;;;;;;;3.28;1.15;;;;;;;14.43;63.33;101812.56;5063740;28;20543;-70
2022/07/28 05:40:15;;;;;;;6.25;1.30;;;;;;;14.93;62.05;101816.31;5054679;28;20520;-69
2022/07/28 05:42:46;;;;;;;2.58;1.10;;;;;;;15.95;58.80;101812.78;5054512;28;20519;-70
2022/07/28 05:45:19;;;;;;;3.83;1.20;;;;;;;16.70;56.38;101811.66;5058121;28;20054;-69
2022/07/28 05:47:51;;;;;;;4.32;1.00;;;;;;;18.29;52.46;101806.53;5055088;28;20543;-69
2022/07/28 05:50:23;;;;;;;2.53;0.90;;;;;;;20.00;47.47;101805.94;5050642;28;20046;-69
2022/07/28 05:52:51;;;;;;;3.20;1.00;;;;;;;21.00;44.55;101803.91;5053826;28;20563;-70
2022/07/28 05:55:19;;;;;;;3.30;1.23;;;;;;;21.33;43.16;101809.06;5053526;28;20092;-69
2022/07/28 05:57:47;;;;;;;3.00;0.90;;;;;;;22.00;41.84;101813.03;5062771;28;20052;-69
2022/07/28 06:00:19;;;;;;;5.88;0.85;;;;;;;22.09;41.46;101809.78;5054768;28;20041;-70
2022/07/28 06:02:48;;;;;;;2.55;0.77;;;;;;;20.87;43.39;101814.50;5053992;28;20045;-70
2022/07/28 06:05:19;;;;;;;4.43;1.20;;;;;;;20.06;45.30;101815.44;5051724;28;20077;-70
2022/07/28 06:07:51;;;;;;;2.17;0.93;;;;;;;19.44;46.57;101821.38;5033700;28;20068;-70
2022/07/28 06:10:22;;;;;;;4.95;0.85;;;;;;;18.63;47.95;101828.94;5033500;28;20497;-70
2022/07/28 06:12:53;;;;;;;2.75;0.80;;;;;;;17.77;50.30;101832.91;5033945;28;20034;-69
2022/07/28 06:15:25;;;;;;;7.25;1.10;;;;;;;17.07;52.02;101830.59;5034579;28;20532;-69
2022/07/28 06:17:54;;;;;;;3.95;0.85;;;;;;;16.70;53.35;101832.06;5055191;28;20065;-69
2022/07/28 06:20:24;;;;;;;2.85;0.82;;;;;;;16.49;54.17;101829.34;5051571;28;20061;-70
2022/07/28 06:22:53;;;;;;;2.65;0.90;;;;;;;16.36;55.01;101831.63;5050115;28;20080;-70
2022/07/28 06:25:27;;;;;;;3.75;1.00;;;;;;;16.34;55.16;101830.81;5069205;28;20077;-70
2022/07/28 06:27:57;;;;;;;3.03;1.00;;;;;;;16.28;55.38;101831.06;5062959;28;20041;-70
2022/07/28 06:30:26;;;;;;;5.30;1.20;;;;;;;16.31;55.68;101836.28;5053158;28;20092;-69
2022/07/28 06:32:56;;;;;;;4.72;1.30;;;;;;;16.33;55.50;101838.84;5053741;28;20041;-69
2022/07/28 06:35:25;;;;;;;3.30;0.98;;;;;;;16.33;55.52;101834.38;5053335;28;20057;-70
2022/07/28 06:37:52;;;;;;;4.95;1.17;;;;;;;16.44;54.95;101829.50;5053601;28;20044;-70
2022/07/28 06:40:21;;;;;;;5.13;1.10;;;;;;;16.45;54.79;101827.75;5053021;28;20480;-70
2022/07/28 06:42:54;;;;;;;4.68;1.20;;;;;;;16.40;55.28;101832.38;5053523;28;20045;-70
2022/07/28 06:45:28;;;;;;;4.90;0.98;;;;;;;16.49;54.50;101829.34;5051954;28;20038;-70
2022/07/28 06:47:55;;;;;;;2.15;0.85;;;;;;;16.48;54.57;101834.72;5053033;28;20055;-70
2022/07/28 06:50:23;;;;;;;7.05;0.98;;;;;;;16.48;54.08;101832.06;5068992;28;20507;-70
2022/07/28 06:52:55;;;;;;;2.33;0.90;;;;;;;16.42;55.18;101834.06;5052042;28;20492;-70
2022/07/28 06:55:25;;;;;;;1.92;0.88;;;;;;;16.50;55.00;101832.88;5052001;28;20131;-70
2022/07/28 06:58:05;;;;;;;3.78;0.93;;;;;;;16.63;54.29;101843.91;5049543;28;20495;-70
2022/07/28 07:00:33;;;;;;;6.00;1.15;;;;;;;16.65;53.63;101832.25;5053031;28;20487;-70
2022/07/28 07:03:02;;;;;;;2.70;1.13;;;;;;;16.67;53.65;101830.41;5052770;28;20049;-71
2022/07/28 07:05:32;;;;;;;4.88;0.90;;;;;;;16.72;53.87;101827.56;5053140;28;20113;-70
2022/07/28 07:07:59;;;;;;;4.53;0.80;;;;;;;16.76;53.74;101831.84;5052936;28;20041;-70
2022/07/28 07:10:53;;;;;;;6.40;1.00;;;;;;;16.84;53.35;101826.22;5052637;28;20502;-70
2022/07/28 07:13:20;;;;;;;3.47;0.90;;;;;;;16.98;53.12;101828.34;5067143;28;20041;-70
2022/07/28 07:15:49;;;;;;;5.00;1.08;;;;;;;17.03;53.25;101821.00;5051488;28;20041;-70
2022/07/28 07:18:17;;;;;;;3.38;1.05;;;;;;;17.19;53.57;101826.53;5052219;28;20468;-70
2022/07/28 07:20:44;;;;;;;5.03;1.38;;;;;;;17.42;52.41;101822.03;5051450;28;20064;-71
2022/07/28 07:23:13;;;;;;;3.08;0.82;;;;;;;17.57;51.61;101823.16;5052372;28;20532;-70
2022/07/28 07:25:41;;;;;;;5.68;1.40;;;;;;;17.66;51.73;101818.25;5051786;28;20116;-70
2022/07/28 07:28:08;;;;;;;2.60;0.95;;;;;;;17.73;51.71;101804.69;5052602;28;20404;-70
2022/07/28 07:30:36;;;;;;;4.53;1.20;;;;;;;17.72;51.70;101813.59;5044263;28;20489;-71
2022/07/28 07:33:29;;;;;;;4.40;0.82;;;;;;;17.80;51.92;101824.78;5032818;28;20529;-70
2022/07/28 07:35:56;;;;;;;3.80;0.82;;;;;;;17.88;50.44;101819.13;5033164;28;20045;-71
2022/07/28 07:38:23;;;;;;;1.77;0.75;;;;;;;17.84;50.40;101813.06;5048000;28;20045;-71
2022/07/28 07:40:57;;;;;;;2.53;0.70;;;;;;;17.72;50.70;101809.13;5052075;28;20092;-70
2022/07/28 07:43:24;;;;;;;5.25;0.90;;;;;;;17.70;51.27;101819.03;5054626;28;20225;-72
2022/07/28 07:45:52;;;;;;;5.45;0.90;;;;;;;17.78;51.62;101810.66;5050450;28;20042;-72
2022/07/28 07:48:29;;;;;;;7.28;1.13;;;;;;;18.04;50.97;101808.63;5051737;28;20054;-72
2022/07/28 07:50:57;;;;;;;3.33;0.73;;;;;;;18.20;49.60;101806.97;5051784;28;20049;-71
2022/07/28 07:53:24;;;;;;;7.70;1.00;;;;;;;18.19;49.70;101810.56;5051597;28;20042;-71
2022/07/28 07:55:51;;;;;;;5.05;0.85;;;;;;;18.23;49.64;101800.59;5047475;28;20041;-71
2022/07/28 07:58:18;;;;;;;4.53;1.00;;;;;;;18.22;50.41;101797.09;5051891;28;20049;-71
2022/07/28 08:00:46;;;;;;;2.17;0.70;;;;;;;18.29;49.63;101798.53;5052448;28;20056;-71
2022/07/28 08:03:16;;;;;;;3.00;0.80;;;;;;;18.41;49.43;101796.19;5052523;28;20053;-71
2022/07/28 08:05:48;;;;;;;1.20;0.60;;;;;;;18.46;49.10;101795.03;5052557;28;20477;-71
2022/07/28 08:08:17;;;;;;;5.30;0.80;;;;;;;18.57;48.97;101802.50;5052920;28;20047;-71
2022/07/28 08:10:44;;;;;;;2.42;0.70;;;;;;;18.68;48.59;101804.69;5051907;28;20056;-71
2022/07/28 08:13:11;;;;;;;5.25;1.10;;;;;;;18.81;48.52;101810.28;5052680;28;20052;-71
2022/07/28 08:15:39;;;;;;;2.85;0.60;;;;;;;18.91;48.91;101800.84;5051971;28;20152;-71
2022/07/28 08:18:06;;;;;;;3.85;0.80;;;;;;;19.05;47.96;101796.66;5052739;28;20050;-70
2022/07/28 08:20:33;;;;;;;3.00;0.80;;;;;;;19.22;46.89;101799.31;5051922;28;20061;-70
2022/07/28 08:23:00;;;;;;;3.25;0.70;;;;;;;19.23;45.93;101800.16;5052427;28;20037;-71
2022/07/28 08:25:27;;;;;;;2.58;0.82;;;;;;;19.06;47.05;101803.72;5035594;28;20054;-71
2022/07/28 08:27:54;;;;;;;4.15;0.73;;;;;;;19.06;46.80;101799.25;5035771;28;20057;-70
2022/07/28 08:30:21;;;;;;;3.78;1.02;;;;;;;19.14;47.46;101787.28;5052206;28;20154;-70
2022/07/28 08:32:56;;;;;;;;;;;;;;;19.34;46.07;101783.59;5052991;28;20072;-70
2022/07/28 08:35:24;;;;;;;1.92;0.70;;;;;;;19.32;46.57;101775.66;5052543;28;20318;-70
2022/07/28 08:38:05;;;;;;;4.88;0.88;;;;;;;19.38;45.99;101780.66;5044849;28;20072;-71
2022/07/28 08:40:35;;;;;;;3.40;0.70;;;;;;;19.37;46.25;101778.09;5055513;28;20041;-71
2022/07/28 08:43:29;;;;;;;1.80;0.55;;;;;;;19.42;46.34;101773.34;5055510;28;20042;-70
2022/07/28 08:46:23;;;;;;;2.47;0.82;;;;;;;19.47;45.56;101782.00;5055962;28;20042;-70
2022/07/28 08:48:51;;;;;;;2.92;0.80;;;;;;;19.53;45.89;101780.81;5055408;28;20481;-71
2022/07/28 08:51:20;;;;;;;3.20;1.00;;;;;;;19.63;46.29;101779.38;5055204;28;20038;-71
2022/07/28 08:53:51;;;;;;;3.40;0.90;;;;;;;19.79;45.62;101778.53;5053982;28;20034;-72
2022/07/28 08:56:20;;;;;;;2.00;0.70;;;;;;;19.98;44.77;101786.47;5055684;28;20486;-71
2022/07/28 08:58:47;;;;;;;2.50;0.70;;;;;;;20.02;45.18;101785.31;5066551;28;20041;-71
2022/07/28 09:01:15;;;;;;;3.58;0.80;;;;;;;20.05;45.44;101778.94;5070426;28;20045;-71
2022/07/28 09:03:43;;;;;;;4.88;1.05;;;;;;;20.17;45.81;101783.59;5055780;28;20041;-71
2022/07/28 09:06:11;;;;;;;4.55;1.08;;;;;;;20.36;44.13;101782.56;5055245;28;20037;-70
2022/07/28 09:08:38;;;;;;;1.75;0.90;;;;;;;20.27;44.67;101783.97;5056138;28;20051;-71
2022/07/28 09:11:07;;;;;;;3.17;0.80;;;;;;;20.31;44.14;101780.13;5051828;28;20057;-71
2022/07/28 09:13:35;;;;;;;5.45;0.90;;;;;;;20.22;45.17;101778.00;5057288;28;20100;-70
2022/07/28 09:16:04;;;;;;;3.50;0.90;;;;;;;20.31;44.38;101789.06;5066644;28;20595;-70
2022/07/28 09:18:32;;;;;;;2.33;0.65;;;;;;;20.31;44.64;101777.47;5058160;28;20550;-70
2022/07/28 09:20:59;;;;;;;3.35;0.77;;;;;;;20.32;44.48;101777.41;5053239;28;20053;-70
2022/07/28 09:23:46;;;;;;;2.17;0.70;;;;;;;20.41;44.52;101776.00;5038710;28;20425;-70
2022/07/28 09:26:16;;;;;;;1.65;0.80;;;;;;;20.54;43.91;101772.63;5066022;28;20116;-70
2022/07/28 09:28:52;;;;;;;4.18;0.60;;;;;;;20.52;43.94;101766.47;5052941;28;20054;-71
2022/07/28 09:31:22;;;;;;;4.18;0.85;;;;;;;20.53;44.28;101763.72;5048074;28;20104;-70
2022/07/28 09:34:02;;;;;;;3.35;0.85;;;;;;;20.72;42.97;101766.19;5034105;28;20525;-70
2022/07/28 09:36:37;;;;;;;3.05;0.80;;;;;;;20.69;43.14;101763.69;5052569;28;20100;-71
2022/07/28 09:39:05;;;;;;;6.03;0.88;;;;;;;20.72;43.69;101765.31;5050349;28;20049;-70
2022/07/28 09:41:51;;;;;;;4.82;0.90;;;;;;;20.87;42.86;101755.56;5054436;28;20047;-70
2022/07/28 09:44:21;;;;;;;1.67;0.80;;;;;;;20.96;42.97;101754.16;5033866;28;20045;-70
2022/07/28 09:46:49;;;;;;;4.20;1.10;;;;;;;21.06;42.06;101749.97;5055994;28;20145;-71
2022/07/28 09:49:17;;;;;;;2.15;0.63;;;;;;;21.10;42.00;101748.81;5055942;28;20502;-71
2022/07/28 09:52:02;;;;;;;3.22;0.73;;;;;;;21.12;41.87;101754.06;5059795;28;20080;-70
2022/07/28 09:54:30;;;;;;;4.05;0.80;;;;;;;21.21;42.14;101753.53;5037196;28;20049;-70
2022/07/28 09:56:57;;;;;;;3.88;0.77;;;;;;;21.25;41.58;101749.69;5054130;28;20073;-71
2022/07/28 09:59:25;;;;;;;2.47;0.98;;;;;;;21.37;40.90;101743.56;5056246;28;20543;-71
2022/07/28 10:02:01;;;;;;;3.28;0.70;;;;;;;21.35;40.98;101734.75;5056027;28;20065;-71
2022/07/28 10:04:38;;;;;;;4.93;1.00;;;;;;;21.36;41.05;101735.63;5055587;28;20530;-71
2022/07/28 10:07:08;;;;;;;5.38;1.08;;;;;;;21.45;40.27;101732.38;5051628;28;20485;-71
2022/07/28 10:09:38;;;;;;;4.47;0.77;;;;;;;21.65;40.00;101730.28;5051585;28;20050;-70
2022/07/28 10:12:23;;;;;;;2.13;0.65;;;;;;;21.73;40.25;101717.25;5052159;28;20041;-71
2022/07/28 10:14:55;;;;;;;2.80;0.70;;;;;;;21.81;39.30;101725.66;5048541;28;20049;-71
2022/07/28 10:17:33;;;;;;;5.63;0.85;;;;;;;21.72;39.54;101721.72;5053095;28;20049;-71
2022/07/28 10:20:04;;;;;;;3.35;0.70;;;;;;;21.72;40.18;101728.94;5051795;28;20057;-71
2022/07/28 10:22:34;;;;;;;4.32;1.00;;;;;;;21.79;40.10;101719.53;5051512;28;20100;-71
2022/07/28 10:25:13;;;;;;;3.47;0.77;;;;;;;21.85;39.74;101712.91;5057885;28;20049;-71
2022/07/28 10:27:46;;;;;;;2.58;0.85;;;;;;;21.92;38.55;101718.75;5053973;28;20120;-71
2022/07/28 10:30:14;;;;;;;2.65;0.70;;;;;;;21.72;39.18;101702.09;5054104;28;20041;-71
2022/07/28 10:32:44;;;;;;;2.78;0.90;;;;;;;21.71;39.37;101697.69;5052947;28;20046;-70
2022/07/28 10:35:16;;;;;;;1.48;0.45;;;;;;;21.78;39.59;101698.16;5053484;28;20041;-70
2022/07/28 10:37:53;;;;;;;3.22;0.73;;;;;;;21.76;39.33;101700.06;5050298;28;20483;-71
2022/07/28 10:40:28;;;;;;;5.07;0.80;;;;;;;21.74;39.71;101691.25;5051660;28;20113;-71
2022/07/28 10:42:57;;;;;;;3.90;1.00;;;;;;;21.72;39.76;101691.38;5051278;28;20052;-71
2022/07/28 10:45:26;;;;;;;3.00;0.90;;;;;;;21.79;40.18;101698.06;5052737;28;20051;-71
2022/07/28 10:48:14;;;;;;;2.13;0.70;;;;;;;22.13;38.37;101698.56;5053461;28;20115;-70
2022/07/28 10:50:43;;;;;;;2.80;0.73;;;;;;;22.25;38.31;101696.03;5053672;28;20065;-70
2022/07/28 10:53:18;;;;;;;3.03;0.85;;;;;;;22.32;38.10;101700.88;5067417;28;20034;-70
2022/07/28 10:55:55;;;;;;;4.13;0.75;;;;;;;22.33;37.78;101693.69;5052446;28;20049;-69
2022/07/28 10:59:02;;;;;;;4.47;0.60;;;;;;;22.49;37.19;101696.22;5051888;28;20042;-69
2022/07/28 11:01:39;;;;;;;1.67;0.52;;;;;;;22.51;37.68;101704.16;5038855;28;20125;-69
2022/07/28 11:04:45;;;;;;;5.55;1.10;;;;;;;22.49;37.46;101693.53;5052465;28;20041;-70
2022/07/28 11:07:18;;;;;;;2.15;0.68;;;;;;;22.67;36.60;101696.81;5062129;28;20478;-70
2022/07/28 11:09:46;;;;;;;4.93;0.73;;;;;;;22.60;36.77;101693.69;5072778;28;20045;-70
2022/07/28 11:12:15;;;;;;;3.03;0.77;;;;;;;22.59;36.77;101688.38;5057121;28;20044;-70
2022/07/28 11:14:43;;;;;;;5.93;1.10;;;;;;;22.61;36.68;101689.16;5051562;28;20046;-71
2022/07/28 11:17:14;;;;;;;2.08;0.68;;;;;;;22.80;36.11;101686.91;5055953;28;20052;-71
2022/07/28 11:19:44;;;;;;;2.95;0.90;;;;;;;22.85;36.31;101686.59;5065902;28;20045;-69
2022/07/28 11:22:32;;;;;;;3.60;0.70;;;;;;;22.84;36.33;101678.66;5052129;28;20084;-70
2022/07/28 11:25:03;;;;;;;2.47;0.73;;;;;;;22.85;37.26;101675.84;5054458;28;20033;-69
2022/07/28 11:27:50;;;;;;;4.00;0.70;;;;;;;23.05;35.58;101681.66;5056989;28;20050;-69
2022/07/28 11:30:18;;;;;;;3.03;0.90;;;;;;;23.07;35.49;101677.03;5050952;28;20041;-70
2022/07/28 11:32:54;;;;;;;4.80;1.00;;;;;;;23.01;35.66;101674.78;5050645;28;20364;-70
2022/07/28 11:35:51;;;;;;;2.22;0.60;;;;;;;23.17;35.65;101680.81;5051533;28;20042;-71
2022/07/28 11:38:19;;;;;;;2.95;0.80;;;;;;;23.25;35.28;101673.06;5049721;28;20055;-71
2022/07/28 11:40:52;;;;;;;6.90;0.80;;;;;;;23.25;35.46;101669.53;5050130;28;20446;-71
2022/07/28 11:43:25;;;;;;;3.80;0.80;;;;;;;23.25;35.41;101665.00;5050805;28;20184;-71
2022/07/28 11:46:03;;;;;;;2.83;0.90;;;;;;;23.41;35.81;101658.53;5050535;28;20088;-71
2022/07/28 11:48:39;;;;;;;3.05;0.65;;;;;;;23.58;34.77;101657.31;5047473;28;20045;-71